I Boat 2 — 2CMM8 — position and weather

sailwx.info

Track history (hours):
 
Tides and Currents Weather Stations Pressure Air Temp Water Temp Dewpoint Dewpoint Depression Visibility Wind Speed Wind Dir Waves Ship Positions

I Boat 2

Last reported at 2015-May-23 08:32 UTC. Time now 2015-May-23 08:50 UTC.
Position N 44°06' E 009°51'.

Length 40 m; draft 2.4 m.

Type: Pleasure craft. MMSI: 235074051.

Date/timePositionNaut miles runAvg speedWind from/ knotsBaromVisibWave heightAir tempDewpointWater temp
2015-May-23 08:32N 44°06' E 009°51'0 0.0
2015-May-23 07:32N 44°06' E 009°51'0 0.0
2015-May-23 06:32N 44°06' E 009°51'0 0.0
2015-May-23 05:32N 44°06' E 009°51'0 0.0
2015-May-23 04:29N 44°06' E 009°51'0 0.0
2015-May-23 03:32N 44°06' E 009°51'0 0.0
2015-May-23 02:32N 44°06' E 009°51'0 0.0
2015-May-23 01:32N 44°06' E 009°51'0 0.0
2015-May-23 00:32N 44°06' E 009°51'0 0.0
2015-May-22 23:32N 44°06' E 009°51'0 0.0
2015-May-22 22:32N 44°06' E 009°51'0 0.0
2015-May-22 21:32N 44°06' E 009°51'0 0.0
2015-May-22 20:32N 44°06' E 009°51'0 0.0
2015-May-22 19:32N 44°06' E 009°51'0 0.0
2015-May-22 18:32N 44°06' E 009°51'0 0.0
2015-May-22 17:32N 44°06' E 009°51'0 0.0
2015-May-22 16:32N 44°06' E 009°51'0 0.0
2015-May-22 15:32N 44°06' E 009°51'0 0.0
2015-May-22 14:32N 44°06' E 009°51'0 0.0
2015-May-22 13:32N 44°06' E 009°51'0 0.0
2015-May-22 12:32N 44°06' E 009°51'0 0.0
2015-May-22 11:32N 44°06' E 009°51'  
2015-May-18 10:31N 44°06' E 009°51'0 0.0
2015-May-18 09:31N 44°06' E 009°51'0 0.0
2015-May-17 15:33N 44°06' E 009°51'1 1.3
2015-May-17 14:33N 44°04' E 009°51'1 1.3
2015-May-17 13:33N 44°03' E 009°51'0 0.0
2015-May-17 12:33N 44°03' E 009°51'0 0.0
2015-May-17 11:33N 44°03' E 009°51'0 0.0
2015-May-17 10:33N 44°03' E 009°51'0 0.0
2015-May-17 09:33N 44°03' E 009°51'0 0.0
2015-May-17 08:33N 44°03' E 009°51'0 0.0
2015-May-17 07:33N 44°03' E 009°51'0 0.0
2015-May-17 06:33N 44°03' E 009°51'0 0.0
2015-May-17 05:34N 44°03' E 009°51'0 0.0
2015-May-17 04:33N 44°03' E 009°51'0 0.0
2015-May-17 03:33N 44°03' E 009°51'0 0.0
2015-May-17 02:33N 44°03' E 009°51'0 0.0
2015-May-17 01:33N 44°03' E 009°51'0 0.0
2015-May-17 00:33N 44°03' E 009°51'0 0.0
2015-May-16 23:33N 44°03' E 009°51'0 0.0
2015-May-16 22:33N 44°03' E 009°51'0 0.0
2015-May-16 21:33N 44°03' E 009°51'0 0.0
2015-May-16 20:33N 44°03' E 009°51'0 0.0
2015-May-16 19:33N 44°03' E 009°51'0 0.1
2015-May-16 18:33N 44°03' E 009°51'3 2.6
2015-May-16 17:31N 44°05' E 009°54'0 0.0
2015-May-16 16:32N 44°05' E 009°54'0 0.0
2015-May-16 15:28N 44°05' E 009°54'3 3.0
2015-May-16 14:32N 44°03' E 009°51'0 0.0
2015-May-16 13:32N 44°03' E 009°51'0 0.0
2015-May-16 12:32N 44°03' E 009°51'0 0.0
2015-May-16 11:32N 44°03' E 009°51'0 0.0
2015-May-16 10:32N 44°03' E 009°51'2 1.8
2015-May-16 09:34N 44°05' E 009°51'1 0.9
2015-May-16 08:32N 44°06' E 009°51'0 0.0
2015-May-16 07:32N 44°06' E 009°51'0 0.0
2015-May-16 06:32N 44°06' E 009°51'0 0.0
2015-May-16 05:32N 44°06' E 009°51'0 0.0
2015-May-16 04:32N 44°06' E 009°51'0 0.0
2015-May-16 03:32N 44°06' E 009°51'0 0.0
2015-May-16 02:32N 44°06' E 009°51'0 0.0
2015-May-16 01:32N 44°06' E 009°51'0 0.0
2015-May-16 00:32N 44°06' E 009°51'0 0.0
2015-May-15 23:32N 44°06' E 009°51'0 0.0
2015-May-15 22:32N 44°06' E 009°51'0 0.0
2015-May-15 21:32N 44°06' E 009°51'0 0.0
2015-May-15 20:29N 44°06' E 009°51'0 0.0
2015-May-15 19:32N 44°06' E 009°51'0 0.0
2015-May-15 18:32N 44°06' E 009°51'0 0.0
2015-May-15 17:32N 44°06' E 009°51'0 0.0
2015-May-15 16:32N 44°06' E 009°51'0 0.0
2015-May-15 15:29N 44°06' E 009°51'0 0.0
2015-May-15 14:32N 44°06' E 009°51'0 0.0
2015-May-15 13:32N 44°06' E 009°51'0 0.0
2015-May-15 12:32N 44°06' E 009°51'0 0.0
2015-May-15 11:32N 44°06' E 009°51'0 0.0
2015-May-15 10:29N 44°06' E 009°51'0 0.0
2015-May-15 09:32N 44°06' E 009°51'0 0.0
2015-May-15 08:32N 44°06' E 009°51'0 0.0
2015-May-15 07:32N 44°06' E 009°51'0 0.0
2015-May-15 06:32N 44°06' E 009°51'0 0.0
2015-May-15 05:32N 44°06' E 009°51'0 0.0
2015-May-15 04:32N 44°06' E 009°51'0 0.0
2015-May-15 03:32N 44°06' E 009°51'0 0.0
2015-May-15 02:32N 44°06' E 009°51'0 0.0
2015-May-15 01:32N 44°06' E 009°51'0 0.0
2015-May-15 00:32N 44°06' E 009°51'0 0.0
2015-May-14 23:32N 44°06' E 009°51'0 0.0
2015-May-14 22:32N 44°06' E 009°51'0 0.0
2015-May-14 21:33N 44°06' E 009°51'2 2.3
2015-May-14 20:31N 44°03' E 009°51'0 0.0
2015-May-14 19:31N 44°03' E 009°51'0 0.0
2015-May-14 18:31N 44°03' E 009°51'0 0.0
2015-May-14 17:31N 44°03' E 009°51'0 0.0
2015-May-14 16:31N 44°03' E 009°51'0 0.0
2015-May-14 15:31N 44°03' E 009°51'0 0.0
2015-May-14 14:31N 44°03' E 009°51'0 0.0
2015-May-14 13:31N 44°03' E 009°51'0 0.0
2015-May-14 12:33N 44°03' E 009°51'3 2.5
2015-May-14 11:32N 44°06' E 009°51'0 0.0
2015-May-14 10:32N 44°06' E 009°51'0 0.0
2015-May-14 09:32N 44°06' E 009°51'0 0.0
2015-May-14 08:32N 44°06' E 009°51'0 0.0
2015-May-14 07:32N 44°06' E 009°51'0 0.0
2015-May-14 06:29N 44°06' E 009°51'0 0.0
2015-May-14 05:32N 44°06' E 009°51'0 0.0
2015-May-14 04:32N 44°06' E 009°51'0 0.0
2015-May-14 03:32N 44°06' E 009°51'0 0.0
2015-May-14 02:32N 44°06' E 009°51'0 0.0
2015-May-14 01:32N 44°06' E 009°51'0 0.0
2015-May-14 00:32N 44°06' E 009°51'0 0.0
2015-May-13 23:32N 44°06' E 009°51'0 0.0
2015-May-13 22:32N 44°06' E 009°51'0 0.0
2015-May-13 21:32N 44°06' E 009°51'0 0.0
2015-May-13 20:32N 44°06' E 009°51'0 0.0
2015-May-13 19:32N 44°06' E 009°51'0 0.0
2015-May-13 18:32N 44°06' E 009°51'0 0.0
2015-May-13 17:29N 44°06' E 009°51'0 0.0
2015-May-13 16:32N 44°06' E 009°51'0 0.0
2015-May-13 15:32N 44°06' E 009°51'0 0.0
2015-May-13 14:29N 44°06' E 009°51'0 0.0
2015-May-13 13:32N 44°06' E 009°51'0 0.0
2015-May-13 12:32N 44°06' E 009°51'0 0.0
2015-May-13 11:29N 44°06' E 009°51'0 0.0
2015-May-13 10:32N 44°06' E 009°51'0 0.0
2015-May-13 09:32N 44°06' E 009°51'0 0.0
2015-May-13 08:32N 44°06' E 009°51'  
Track history (hours):
 
Tides and Currents Weather Stations Pressure Air Temp Water Temp Dewpoint Dewpoint Depression Visibility Wind Speed Wind Dir Waves Ship Positions

I Boat 2

Last reported at 2015-May-23 08:32 UTC. Time now 2015-May-23 08:50 UTC.
Position N 44°06' E 009°51'.

Length 40 m; draft 2.4 m.

Type: Pleasure craft. MMSI: 235074051.

Date/timePositionNaut miles runAvg speedWind from/ knotsBaromVisibWave heightAir tempDewpointWater temp
2015-May-23 08:32N 44°06' E 009°51'0 0.0
2015-May-23 07:32N 44°06' E 009°51'0 0.0
2015-May-23 06:32N 44°06' E 009°51'0 0.0
2015-May-23 05:32N 44°06' E 009°51'0 0.0
2015-May-23 04:29N 44°06' E 009°51'0 0.0
2015-May-23 03:32N 44°06' E 009°51'0 0.0
2015-May-23 02:32N 44°06' E 009°51'0 0.0
2015-May-23 01:32N 44°06' E 009°51'0 0.0
2015-May-23 00:32N 44°06' E 009°51'0 0.0
2015-May-22 23:32N 44°06' E 009°51'0 0.0
2015-May-22 22:32N 44°06' E 009°51'0 0.0
2015-May-22 21:32N 44°06' E 009°51'0 0.0
2015-May-22 20:32N 44°06' E 009°51'0 0.0
2015-May-22 19:32N 44°06' E 009°51'0 0.0
2015-May-22 18:32N 44°06' E 009°51'0 0.0
2015-May-22 17:32N 44°06' E 009°51'0 0.0
2015-May-22 16:32N 44°06' E 009°51'0 0.0
2015-May-22 15:32N 44°06' E 009°51'0 0.0
2015-May-22 14:32N 44°06' E 009°51'0 0.0
2015-May-22 13:32N 44°06' E 009°51'0 0.0
2015-May-22 12:32N 44°06' E 009°51'0 0.0
2015-May-22 11:32N 44°06' E 009°51'  
2015-May-18 10:31N 44°06' E 009°51'0 0.0
2015-May-18 09:31N 44°06' E 009°51'0 0.0
2015-May-17 15:33N 44°06' E 009°51'1 1.3
2015-May-17 14:33N 44°04' E 009°51'1 1.3
2015-May-17 13:33N 44°03' E 009°51'0 0.0
2015-May-17 12:33N 44°03' E 009°51'0 0.0
2015-May-17 11:33N 44°03' E 009°51'0 0.0
2015-May-17 10:33N 44°03' E 009°51'0 0.0
2015-May-17 09:33N 44°03' E 009°51'0 0.0
2015-May-17 08:33N 44°03' E 009°51'0 0.0
2015-May-17 07:33N 44°03' E 009°51'0 0.0
2015-May-17 06:33N 44°03' E 009°51'0 0.0
2015-May-17 05:34N 44°03' E 009°51'0 0.0
2015-May-17 04:33N 44°03' E 009°51'0 0.0
2015-May-17 03:33N 44°03' E 009°51'0 0.0
2015-May-17 02:33N 44°03' E 009°51'0 0.0
2015-May-17 01:33N 44°03' E 009°51'0 0.0
2015-May-17 00:33N 44°03' E 009°51'0 0.0
2015-May-16 23:33N 44°03' E 009°51'0 0.0
2015-May-16 22:33N 44°03' E 009°51'0 0.0
2015-May-16 21:33N 44°03' E 009°51'0 0.0
2015-May-16 20:33N 44°03' E 009°51'0 0.0
2015-May-16 19:33N 44°03' E 009°51'0 0.1
2015-May-16 18:33N 44°03' E 009°51'3 2.6
2015-May-16 17:31N 44°05' E 009°54'0 0.0
2015-May-16 16:32N 44°05' E 009°54'0 0.0
2015-May-16 15:28N 44°05' E 009°54'3 3.0
2015-May-16 14:32N 44°03' E 009°51'0 0.0
2015-May-16 13:32N 44°03' E 009°51'0 0.0
2015-May-16 12:32N 44°03' E 009°51'0 0.0
2015-May-16 11:32N 44°03' E 009°51'0 0.0
2015-May-16 10:32N 44°03' E 009°51'2 1.8
2015-May-16 09:34N 44°05' E 009°51'1 0.9
2015-May-16 08:32N 44°06' E 009°51'0 0.0
2015-May-16 07:32N 44°06' E 009°51'0 0.0
2015-May-16 06:32N 44°06' E 009°51'0 0.0
2015-May-16 05:32N 44°06' E 009°51'0 0.0
2015-May-16 04:32N 44°06' E 009°51'0 0.0
2015-May-16 03:32N 44°06' E 009°51'0 0.0
2015-May-16 02:32N 44°06' E 009°51'0 0.0
2015-May-16 01:32N 44°06' E 009°51'0 0.0
2015-May-16 00:32N 44°06' E 009°51'0 0.0
2015-May-15 23:32N 44°06' E 009°51'0 0.0
2015-May-15 22:32N 44°06' E 009°51'0 0.0
2015-May-15 21:32N 44°06' E 009°51'0 0.0
2015-May-15 20:29N 44°06' E 009°51'0 0.0
2015-May-15 19:32N 44°06' E 009°51'0 0.0
2015-May-15 18:32N 44°06' E 009°51'0 0.0
2015-May-15 17:32N 44°06' E 009°51'0 0.0
2015-May-15 16:32N 44°06' E 009°51'0 0.0
2015-May-15 15:29N 44°06' E 009°51'0 0.0
2015-May-15 14:32N 44°06' E 009°51'0 0.0
2015-May-15 13:32N 44°06' E 009°51'0 0.0
2015-May-15 12:32N 44°06' E 009°51'0 0.0
2015-May-15 11:32N 44°06' E 009°51'0 0.0
2015-May-15 10:29N 44°06' E 009°51'0 0.0
2015-May-15 09:32N 44°06' E 009°51'0 0.0
2015-May-15 08:32N 44°06' E 009°51'0 0.0
2015-May-15 07:32N 44°06' E 009°51'0 0.0
2015-May-15 06:32N 44°06' E 009°51'0 0.0
2015-May-15 05:32N 44°06' E 009°51'0 0.0
2015-May-15 04:32N 44°06' E 009°51'0 0.0
2015-May-15 03:32N 44°06' E 009°51'0 0.0
2015-May-15 02:32N 44°06' E 009°51'0 0.0
2015-May-15 01:32N 44°06' E 009°51'0 0.0
2015-May-15 00:32N 44°06' E 009°51'0 0.0
2015-May-14 23:32N 44°06' E 009°51'0 0.0
2015-May-14 22:32N 44°06' E 009°51'0 0.0
2015-May-14 21:33N 44°06' E 009°51'2 2.3
2015-May-14 20:31N 44°03' E 009°51'0 0.0
2015-May-14 19:31N 44°03' E 009°51'0 0.0
2015-May-14 18:31N 44°03' E 009°51'0 0.0
2015-May-14 17:31N 44°03' E 009°51'0 0.0
2015-May-14 16:31N 44°03' E 009°51'0 0.0
2015-May-14 15:31N 44°03' E 009°51'0 0.0
2015-May-14 14:31N 44°03' E 009°51'0 0.0
2015-May-14 13:31N 44°03' E 009°51'0 0.0
2015-May-14 12:33N 44°03' E 009°51'3 2.5
2015-May-14 11:32N 44°06' E 009°51'0 0.0
2015-May-14 10:32N 44°06' E 009°51'0 0.0
2015-May-14 09:32N 44°06' E 009°51'0 0.0
2015-May-14 08:32N 44°06' E 009°51'0 0.0
2015-May-14 07:32N 44°06' E 009°51'0 0.0
2015-May-14 06:29N 44°06' E 009°51'0 0.0
2015-May-14 05:32N 44°06' E 009°51'0 0.0
2015-May-14 04:32N 44°06' E 009°51'0 0.0
2015-May-14 03:32N 44°06' E 009°51'0 0.0
2015-May-14 02:32N 44°06' E 009°51'0 0.0
2015-May-14 01:32N 44°06' E 009°51'0 0.0
2015-May-14 00:32N 44°06' E 009°51'0 0.0
2015-May-13 23:32N 44°06' E 009°51'0 0.0
2015-May-13 22:32N 44°06' E 009°51'0 0.0
2015-May-13 21:32N 44°06' E 009°51'0 0.0
2015-May-13 20:32N 44°06' E 009°51'0 0.0
2015-May-13 19:32N 44°06' E 009°51'0 0.0
2015-May-13 18:32N 44°06' E 009°51'0 0.0
2015-May-13 17:29N 44°06' E 009°51'0 0.0
2015-May-13 16:32N 44°06' E 009°51'0 0.0
2015-May-13 15:32N 44°06' E 009°51'0 0.0
2015-May-13 14:29N 44°06' E 009°51'0 0.0
2015-May-13 13:32N 44°06' E 009°51'0 0.0
2015-May-13 12:32N 44°06' E 009°51'0 0.0
2015-May-13 11:29N 44°06' E 009°51'0 0.0
2015-May-13 10:32N 44°06' E 009°51'0 0.0
2015-May-13 09:32N 44°06' E 009°51'0 0.0
2015-May-13 08:32N 44°06' E 009°51'  

Dump ship's entire track history